Latest Weather Observations for Hobart

IDT60801

Issued at 3:31 am EDT Tuesday 6 December 2016 (issued every 30 minutes, with the page automatically refreshed every 10 minutes)

About weather observations | Map of weather stations | Latest weather observations for TAS | Other Formats
Station Details ID: 094029 Name: HOBART (ELLERSLIE ROAD) Lat: -42.89 Lon: 147.33 Height: 50.5 m
Data from the previous 72 hours. | See also: Recent months at Hobart
Date/Time
EDT
Temp
°C
App
Temp
°C
Dew
Point
°C
Rel
Hum
%
Delta-T
°C
Wind Press
QNH
hPa
Press
MSL
hPa
Rain since
9am
mm
Dir  Spd
km/h
Gust
km/h
Spd
kts
Gust
kts
06/03:30am 11.9 9.0 4.4 60 3.4 WSW 9 13 5 7 1010.7 1010.6 0.0
06/03:00am 11.6 9.2 5.1 64 3.0 SW 7 11 4 6 1011.0 1010.9 0.0
06/02:30am 11.4 8.9 4.8 64 3.0 W 7 9 4 5 1011.0 1010.9 0.0
06/02:00am 11.6 8.7 4.8 63 3.1 NW 9 15 5 8 1011.2 1011.1 0.0
06/01:30am 11.6 8.7 4.6 62 3.2 NW 9 13 5 7 1011.2 1011.1 0.0
06/01:00am 12.2 8.7 3.5 55 3.9 NNW 11 17 6 9 1011.4 1011.3 0.0
06/12:30am 12.4 8.6 3.7 55 3.9 NW 13 20 7 11 1011.8 1011.7 0.0
06/12:00am 13.1 8.4 3.3 51 4.4 NNW 17 20 9 11 1012.1 1012.0 0.0
 
Date/Time
EDT
Temp
°C
App
Temp
°C
Dew
Point
°C
Rel
Hum
%
Delta-T
°C
Wind Press
QNH
hPa
Press
MSL
hPa
Rain since
9am
mm
Dir  Spd
km/h
Gust
km/h
Spd
kts
Gust
kts
05/11:30pm 13.6 9.8 3.9 52 4.4 NNW 13 19 7 10 1012.2 1012.1 0.0
05/11:00pm 13.9 9.3 3.5 49 4.7 N 17 22 9 12 1012.0 1011.9 0.0
05/10:30pm 14.5 9.3 2.3 43 5.4 NNW 19 28 10 15 1011.8 1011.7 0.0
05/10:00pm 14.9 9.7 2.3 42 5.6 N 19 32 10 17 1011.8 1011.7 0.0
05/09:30pm 15.1 9.7 2.3 42 5.7 N 20 33 11 18 1011.4 1011.3 0.0
05/09:00pm 15.5 12.2 2.6 42 5.8 NE 9 15 5 8 1010.8 1010.7 0.0
05/08:30pm 16.1 10.2 2.0 38 6.3 W 22 33 12 18 1009.8 1009.8 0.0
05/08:00pm 16.6 11.5 2.8 39 6.3 WNW 19 28 10 15 1010.0 1010.0 0.0
05/07:30pm 17.4 12.0 1.5 34 7.1 WNW 19 28 10 15 1009.6 1009.6 0.0
05/07:00pm 17.9 11.5 1.1 32 7.5 NW 24 33 13 18 1009.3 1009.3 0.0
05/06:30pm 18.5 10.4 -0.4 28 8.2 NW 32 46 17 25 1008.6 1008.6 0.0
05/06:20pm 18.9 11.6 -0.3 27 8.4 NW 28 46 15 25 1008.2 1008.2 0.0
05/06:00pm 19.1 11.5 0.4 28 8.3 NW 30 44 16 24 1008.0 1008.0 0.0
05/05:50pm 19.5 12.3 0.8 28 8.4 NW 28 46 15 25 1007.7 1007.7 0.0
05/05:30pm 20.4 13.9 2.4 30 8.4 NW 26 35 14 19 1007.5 1007.5 0.0
05/05:00pm 20.2 14.2 3.1 32 8.1 NW 24 37 13 20 1007.3 1007.3 0.0
05/04:30pm 20.8 13.3 3.5 32 8.3 NW 32 43 17 23 1007.2 1007.2 0.0
05/04:00pm 20.8 13.6 3.1 31 8.4 NW 30 41 16 22 1006.8 1006.8 0.0
05/03:30pm 21.0 15.3 5.0 35 7.9 NW 24 35 13 19 1006.4 1006.4 0.0
05/03:00pm 21.4 14.7 3.9 31 8.5 NW 28 39 15 21 1006.1 1006.1 0.0
05/02:47pm 21.6 15.1 4.8 33 8.3 NW 28 46 15 25 1006.0 1006.0 0.0
05/02:30pm 21.8 16.1 4.8 33 8.4 NW 24 41 13 22 1005.7 1005.7 0.0
05/02:00pm 21.1 12.7 3.7 32 8.4 NW 37 56 20 30 1005.4 1005.4 0.0
05/01:36pm 21.1 14.6 4.6 34 8.1 NW 28 48 15 26 1005.0 1005.0 0.0
05/01:30pm 20.6 13.6 4.1 33 8.0 WNW 30 50 16 27 1005.0 1005.0 0.0
05/01:24pm 20.4 13.8 4.4 35 7.8 NW 28 50 15 27 1004.9 1004.9 0.0
05/01:00pm 20.0 14.7 5.2 38 7.3 NW 22 39 12 21 1004.4 1004.4 0.0
05/12:30pm 21.2 13.9 5.6 36 7.8 NW 33 54 18 29 1004.1 1004.1 0.0
05/12:00pm 20.8 13.8 5.9 37 7.5 NW 32 59 17 32 1003.5 1003.5 0.0
05/11:41am 21.2 14.2 6.2 37 7.6 NW 32 50 17 27 1003.0 1002.9 0.0
05/11:30am 20.6 13.6 5.8 38 7.4 NW 32 46 17 25 1003.0 1002.9 0.0
05/11:00am 20.5 14.0 4.8 35 7.7 NW 28 46 15 25 1002.6 1002.5 0.0
05/10:55am 20.5 14.3 6.0 38 7.3 NW 28 46 15 25 1002.5 1002.4 0.0
05/10:30am 20.0 14.8 5.5 38 7.2 NNW 22 43 12 23 1002.1 1002.0 0.0
05/10:00am 18.8 12.0 5.1 40 6.7 NW 30 56 16 30 1002.4 1002.3 0.0
05/09:48am 18.7 12.4 5.5 42 6.5 NNW 28 54 15 29 1002.2 1002.1 0.0
05/09:30am 18.0 10.2 5.0 42 6.3 NW 35 48 19 26 1002.2 1002.1 0.0
05/09:00am 17.9 11.0 4.8 42 6.3 NW 30 48 16 26 1001.8 1001.7 6.6
05/08:30am 17.5 10.9 4.3 41 6.2 NW 28 48 15 26 1001.2 1001.1 6.6
05/08:00am 16.7 8.3 3.6 41 6.1 NNW 37 54 20 29 1000.6 1000.5 6.6
05/07:32am 16.9 10.0 4.5 43 5.9 NW 30 54 16 29 999.8 999.7 6.6
05/07:30am 16.9 10.0 4.8 44 5.8 NW 30 43 16 23 999.7 999.6 6.6
05/07:01am 17.1 9.8 4.5 43 6.0 NNW 32 48 17 26 998.8 998.7 6.6
05/07:00am 17.1 9.9 4.8 44 5.9 NNW 32 52 17 28 998.8 998.7 6.6
05/06:30am 18.0 10.1 4.5 41 6.4 NW 35 56 19 30 997.9 997.8 6.6
05/06:09am 18.3 12.3 7.1 48 5.6 WNW 28 46 15 25 997.2 997.1 6.6
05/06:00am 18.2 12.7 7.7 50 5.4 WNW 26 44 14 24 997.1 997.0 6.6
05/05:30am 18.5 13.6 11.4 63 3.9 NW 28 46 15 25 996.4 996.3 6.6
05/05:12am 18.7 14.4 13.3 71 3.1 NW 28 54 15 29 995.6 995.5 6.6
05/05:00am 18.5 16.0 15.1 80 2.0 NW 22 33 12 18 995.2 995.1 6.6
05/04:30am 17.9 17.5 16.2 90 1.0 WNW 13 19 7 10 994.6 994.5 6.6
05/04:00am 17.8 16.3 16.3 91 0.9 NNW 19 28 10 15 993.7 993.6 6.4
05/03:30am 17.9 16.2 16.2 90 1.0 NNW 20 33 11 18 994.0 993.9 5.6
05/03:07am 18.5 15.1 15.8 84 1.6 NW 28 46 15 25 994.5 994.4 3.8
05/03:00am 18.8 14.9 15.6 82 1.9 NNW 30 43 16 23 994.3 994.2 2.8
05/02:37am 21.1 17.0 13.7 62 4.3 NNW 28 61 15 33 994.5 994.4 0.0
05/02:30am 21.0 18.0 11.8 55 5.1 NNW 19 35 10 19 994.1 994.0 0.0
05/02:00am 19.9 17.6 10.4 54 5.2 NNE 13 20 7 11 994.1 994.0 0.0
05/01:30am 20.1 16.2 8.8 48 5.9 N 19 30 10 16 994.8 994.7 0.0
05/01:00am 19.9 16.1 9.2 50 5.7 N 19 28 10 15 995.8 995.7 0.0
05/12:30am 20.4 16.9 8.7 47 6.2 NNW 17 26 9 14 997.3 997.2 0.0
05/12:00am 20.7 15.7 7.9 43 6.7 NW 24 39 13 21 997.9 997.8 0.0
 
Date/Time
EDT
Temp
°C
App
Temp
°C
Dew
Point
°C
Rel
Hum
%
Delta-T
°C
Wind Press
QNH
hPa
Press
MSL
hPa
Rain since
9am
mm
Dir  Spd
km/h
Gust
km/h
Spd
kts
Gust
kts
04/11:30pm 21.0 17.8 8.3 44 6.7 NNW 15 26 8 14 999.0 998.9 0.0
04/11:00pm 21.1 17.6 7.2 40 7.2 N 15 20 8 11 999.6 999.5 0.0
04/10:30pm 20.9 18.1 6.9 40 7.1 NNE 11 19 6 10 1000.1 1000.0 0.0
04/10:00pm 21.3 17.7 6.6 38 7.5 N 15 20 8 11 1000.8 1000.7 0.0
04/09:30pm 21.4 17.8 6.8 38 7.5 NNW 15 22 8 12 1000.8 1000.7 0.0
04/09:00pm 21.9 17.7 5.6 34 8.2 NNW 17 26 9 14 1001.3 1001.2 0.0
04/08:30pm 22.3 18.1 5.7 34 8.4 N 17 24 9 13 1001.5 1001.4 0.0
04/08:00pm 22.2 17.4 5.8 34 8.3 N 20 30 11 16 1001.8 1001.7 0.0
04/07:30pm 22.5 16.7 4.5 31 8.9 N 24 33 13 18 1001.7 1001.6 0.0
04/07:00pm 23.1 17.8 5.2 31 9.0 N 22 30 12 16 1002.1 1002.0 0.0
04/06:30pm 23.2 18.2 4.5 29 9.3 N 20 32 11 17 1002.4 1002.3 0.0
04/06:00pm 23.4 17.1 3.9 28 9.6 NNE 26 41 14 22 1002.6 1002.5 0.0
04/05:30pm 24.1 19.6 6.0 31 9.3 NNE 19 32 10 17 1002.9 1002.8 0.0
04/05:00pm 23.3 19.6 8.0 37 8.1 ENE 17 28 9 15 1003.7 1003.7 0.0
04/04:30pm 23.6 21.4 7.7 36 8.4 ESE 9 19 5 10 1004.4 1004.4 0.0
04/04:00pm 24.0 21.2 7.0 33 8.9 NE 11 17 6 9 1005.1 1005.1 0.0
04/03:30pm 24.7 21.8 6.4 31 9.5 NE 11 19 6 10 1005.8 1005.8 0.0
04/03:00pm 24.4 21.0 5.9 30 9.5 NE 13 19 7 10 1006.2 1006.2 0.0
04/02:30pm 23.9 20.8 7.3 34 8.7 NE 13 17 7 9 1007.2 1007.2 0.0
04/02:00pm 23.9 20.8 7.3 34 8.7 NE 13 20 7 11 1007.8 1007.8 0.0
04/01:30pm 23.0 19.8 7.0 35 8.3 N 13 22 7 12 1008.4 1008.4 0.0
04/01:00pm 23.4 20.4 7.9 37 8.2 NNW 13 24 7 13 1009.0 1009.0 0.0
04/12:30pm 21.6 17.3 5.1 34 8.2 NNW 17 26 9 14 1009.4 1009.4 0.0
04/12:00pm 21.5 15.4 3.0 29 8.8 NNW 24 32 13 17 1009.8 1009.8 0.0
04/11:30am 20.5 15.6 4.2 34 7.9 NNW 19 26 10 14 1010.5 1010.4 0.0
04/11:00am 19.4 14.5 5.3 39 6.9 N 20 30 11 16 1011.1 1011.0 0.0
04/10:30am 18.6 14.0 5.5 42 6.4 NNW 19 24 10 13 1011.7 1011.6 0.0
04/10:00am 17.4 12.9 6.0 47 5.6 N 19 30 10 16 1011.9 1011.8 0.0
04/09:30am 16.3 12.3 6.5 52 4.8 NNW 17 26 9 14 1012.1 1012.0 0.0
04/09:00am 15.2 11.0 7.3 59 3.9 NNW 19 22 10 12 1012.4 1012.3 0.0
04/08:30am 14.2 11.5 7.5 64 3.3 N 11 13 6 7 1012.6 1012.5 0.0
04/08:00am 13.3 10.5 7.1 66 3.0 NNW 11 15 6 8 1012.9 1012.8 0.0
04/07:30am 12.3 9.3 7.6 73 2.3 NNW 13 20 7 11 1013.4 1013.3 0.0
04/07:00am 11.3 7.9 7.6 78 1.8 NNW 15 20 8 11 1013.5 1013.4 0.0
04/06:30am 10.6 7.5 7.3 80 1.6 NNW 13 17 7 9 1013.6 1013.5 0.0
04/06:00am 9.3 7.3 7.0 85 1.1 NW 7 9 4 5 1013.4 1013.3 0.0
04/05:30am 8.8 6.9 6.9 88 0.9 W 6 7 3 4 1013.1 1013.0 0.0
04/05:00am 8.7 7.2 7.0 89 0.8 NW 4 7 2 4 1013.3 1013.2 0.0
04/04:30am 9.0 7.2 7.3 89 0.8 NW 6 9 3 5 1013.5 1013.4 0.0
04/04:00am 9.4 7.6 7.3 87 1.0 NW 6 9 3 5 1013.7 1013.6 0.0
04/03:30am 9.7 7.8 7.4 85 1.1 W 7 9 4 5 1013.9 1013.8 0.0
04/03:00am 10.0 8.3 7.7 86 1.1 W 6 7 3 4 1014.2 1014.1 0.0
04/02:30am 10.3 8.5 7.8 84 1.2 W 7 9 4 5 1014.4 1014.3 0.0
04/02:00am 10.9 9.1 8.0 82 1.4 WSW 7 9 4 5 1014.6 1014.5 0.0
04/01:30am 11.7 10.1 8.2 79 1.7 NW 6 7 3 4 1014.9 1014.8 0.0
04/01:00am 12.2 10.4 8.1 76 2.0 WSW 7 11 4 6 1015.1 1015.0 0.0
04/12:30am 12.2 9.7 8.1 76 2.0 WSW 11 17 6 9 1015.1 1015.0 0.0
04/12:00am 12.2 9.7 8.1 76 2.0 WSW 11 15 6 8 1015.2 1015.1 0.0
 
Date/Time
EDT
Temp
°C
App
Temp
°C
Dew
Point
°C
Rel
Hum
%
Delta-T
°C
Wind Press
QNH
hPa
Press
MSL
hPa
Rain since
9am
mm
Dir  Spd
km/h
Gust
km/h
Spd
kts
Gust
kts
03/11:30pm 12.5 10.0 8.0 74 2.2 WSW 11 15 6 8 1015.2 1015.1 0.0
03/11:00pm 12.7 9.7 7.8 72 2.4 SW 13 17 7 9 1015.2 1015.1 0.0
03/10:30pm 12.7 9.3 7.8 72 2.4 SSW 15 24 8 13 1015.2 1015.1 0.0
03/10:00pm 12.9 9.6 8.0 72 2.4 SSW 15 22 8 12 1015.1 1015.0 0.0
03/09:30pm 13.3 9.7 8.3 72 2.5 SSW 17 26 9 14 1015.0 1014.9 0.0
03/09:00pm 13.5 9.4 8.5 72 2.5 SW 20 32 11 17 1014.7 1014.6 0.0
03/08:30pm 13.7 9.2 8.5 71 2.6 SSW 22 32 12 17 1014.4 1014.3 0.0
03/08:00pm 14.0 9.5 8.4 69 2.8 SSW 22 32 12 17 1014.4 1014.3 0.0
03/07:30pm 14.1 10.0 8.8 70 2.7 SSW 20 32 11 17 1014.2 1014.1 0.0
03/07:00pm 14.3 10.8 8.6 68 2.9 SSW 17 30 9 16 1013.9 1013.8 0.0
03/06:30pm 14.5 10.3 8.3 66 3.1 SSW 20 33 11 18 1013.6 1013.5 0.0
03/06:00pm 15.2 10.6 8.3 63 3.5 SSW 22 33 12 18 1013.5 1013.4 0.0
03/05:30pm 15.5 11.5 8.2 62 3.7 SSW 19 30 10 16 1013.4 1013.3 0.0
03/05:00pm 15.5 11.8 7.9 60 3.8 S 17 24 9 13 1013.5 1013.4 0.0
03/04:30pm 15.2 10.1 7.8 61 3.7 SSE 24 35 13 19 1013.6 1013.5 0.0
03/04:00pm 16.8 11.6 5.6 47 5.4 SE 22 32 12 17 1013.2 1013.1 0.0
03/03:30pm 17.8 13.6 3.7 39 6.6 SE 15 19 8 10 1013.1 1013.0 0.0
03/03:00pm 17.4 12.5 4.0 41 6.3 SE 19 26 10 14 1012.9 1012.8 0.0
03/02:30pm 17.1 13.0 4.1 42 6.1 SE 15 20 8 11 1013.2 1013.1 0.0
03/02:00pm 16.5 12.7 3.8 42 5.9 SE 13 19 7 10 1013.5 1013.4 0.0
03/01:30pm 15.8 11.3 4.2 46 5.4 SE 17 20 9 11 1013.5 1013.4 0.0
03/01:00pm 15.7 11.0 3.2 43 5.7 SE 17 22 9 12 1013.4 1013.3 0.0
03/12:30pm 15.8 11.6 3.6 44 5.6 SE 15 20 8 11 1013.5 1013.4 0.0
03/12:00pm 15.4 10.8 3.6 45 5.4 ESE 17 22 9 12 1013.6 1013.5 0.0
03/11:30am 15.2 11.5 4.2 48 5.1 ESE 13 19 7 10 1013.8 1013.7 0.0
03/11:00am 15.1 11.0 4.1 47 5.1 ESE 15 22 8 12 1013.7 1013.6 0.0
03/10:30am 14.6 10.8 3.9 48 4.9 ESE 13 20 7 11 1013.5 1013.4 0.0
03/10:00am 14.9 11.1 3.8 47 5.1 SE 13 20 7 11 1013.5 1013.4 0.0
03/09:30am 15.0 10.0 3.6 46 5.2 NNW 19 28 10 15 1013.3 1013.2 0.0
03/09:00am 14.7 11.0 4.3 49 4.8 NNW 13 26 7 14 1013.4 1013.3 0.2
03/08:30am 13.9 10.2 4.3 52 4.4 NNW 13 24 7 13 1013.4 1013.3 0.2
03/08:00am 12.7 7.7 4.4 57 3.8 NNW 20 28 11 15 1013.2 1013.1 0.2
03/07:30am 12.4 7.5 4.3 57 3.7 NNW 19 28 10 15 1012.9 1012.8 0.2
03/07:00am 11.8 9.3 4.8 62 3.2 WNW 7 13 4 7 1012.8 1012.7 0.2
03/06:30am 10.8 6.3 4.3 64 2.9 NW 17 22 9 12 1012.6 1012.5 0.2
03/06:00am 10.4 5.0 4.4 66 2.7 NW 22 30 12 16 1012.3 1012.2 0.2
03/05:30am 10.5 5.0 4.2 65 2.8 NW 22 30 12 16 1012.2 1012.1 0.2
03/05:00am 10.8 5.3 4.1 63 3.0 NW 22 30 12 16 1012.0 1011.9 0.2
03/04:30am 11.3 5.3 3.1 57 3.6 NNW 24 37 13 20 1011.7 1011.6 0.2
03/04:00am 11.5 5.7 2.5 54 3.9 N 22 30 12 16 1011.4 1011.3 0.2

Other Formats:

Comma delimited format used in spreadsheet applications
http://www.bom.gov.au/fwo/IDT60801/IDT60801.94970.axf

JavaScript Object Notation format (JSON) in row-major order
http://www.bom.gov.au/fwo/IDT60801/IDT60801.94970.json